Jackson County Reynolds Field
KJXN : now visible

Airfield :











YOU CAN JOIN US ON...

 
LOGIN :

Register | Disclaimer

   EN    FR    IT 

 









Legend :    VFR   Marginal VFR   IFR   Intensive IFR   Very Intensive IFR
Visi :
Ceiling :
>= 8 km
>= 3000ft
5 to 8 km
1000 to 3000 ft
1500m to 5 km
500 to 1000 ft
800 to 1500m
200 to 500 ft
< 800m
< 200 ft
Symbols :   Thunderstorms  Fog  Heavy snow  Heavy precipitations  Wind > 20 kt






- Airport Elevation : 1001 ft


KJXN - Jackson County Reynolds Field

CURRENT METAR :
  • 230256Z AUTO 14006KT 4SM BR CLR 15/14 A2997 RMK AO2 SLP152 T01500139 58015

EXPIRED METARs :
  • 230156Z AUTO 13006KT 3SM BR CLR 14/14 A3000 RMK AO2 SLP159 T01440139
  • 230144Z AUTO 12007KT 3SM BR CLR 14/14 A3000 RMK AO2 T01440139
  • 230115Z AUTO 12007KT 2 1/2SM BR FEW003 14/14 A3001 RMK AO2 T01440139
  • 230056Z 12006KT 2 1/2SM BR BKN002 14/14 A3002 RMK AO2 SLP167 T01440139
  • 230021Z 11007KT 1SM BR OVC002 14/14 A3003 RMK AO2 T01440139

TAF KJXN
Valid from the 23 at 02:00 until the 24 at 00:00 UTC


230202Z 2302/2324 12006KT 3SM BR SKC
FM230300 18012KT P6SM SCT040 WS020/24045KT
FM231300 20014G22KT P6SM BKN015 WS020/24045KT
FM231500 20014G24KT 4SM -SHRA BR VCTS OVC008CB
FM231800 24012G24KT P6SM -SHRA BKN015
FM232100 30012G20KT P6SM OVC025
KZOB FIR / North America



MET'MAP, your aeronautical weather chart ! - Copyright ORBIFLY December 2007 - Disclaimer

ORBIFLY MET'MAP TEAM :

Programming & Development : Alexandra Zaïnal
Concept & original design : Baudouin d'Aumeries
Assistance for programming : Marc-Olivier Méhu
Technical & hardware support : Manuel Goepfert

Contact : metmap@orbifly.com




SOURCES & CREDITS :

   NOAA       Earth
Advisory